createdAt,value
2023-03-30T10:59:12.259Z,0.00
2023-03-30T11:00:12.235Z,0.00
2023-03-30T11:14:04.766Z,74.69
2023-03-30T11:15:04.714Z,71.19
2023-03-30T11:16:04.879Z,80.07
2023-03-30T11:21:56.082Z,78.45
2023-03-30T11:22:56.079Z,87.91
2023-03-30T11:23:56.063Z,86.67
2023-03-30T11:24:56.019Z,80.84
2023-03-30T11:25:55.994Z,96.61
2023-03-30T11:26:56.008Z,99.99
2023-03-30T11:27:56.496Z,98.09
2023-03-30T11:28:55.984Z,99.99
2023-03-30T11:29:55.921Z,99.99
2023-03-30T11:30:55.913Z,99.99
2023-03-30T11:34:54.804Z,99.33
2023-03-30T11:35:54.779Z,98.18
2023-03-30T11:36:54.762Z,98.09
2023-03-30T12:01:58.677Z,99.99
2023-03-30T12:02:58.762Z,99.99
2023-03-30T12:03:58.770Z,99.99
2023-03-30T12:04:58.670Z,99.99
2023-03-30T12:05:58.592Z,99.99
2023-03-30T12:06:58.579Z,99.99
2023-03-30T12:07:58.580Z,99.99
2023-03-30T12:08:58.560Z,99.99
2023-03-30T12:10:00.919Z,99.99
2023-03-30T12:10:58.534Z,99.99
2023-03-30T12:11:58.496Z,99.99
2023-03-30T12:12:58.506Z,99.99
2023-03-30T12:13:58.495Z,99.99
2023-03-30T12:14:58.454Z,99.99
2023-03-30T12:15:58.450Z,99.99
2023-03-30T12:16:58.441Z,99.99
2023-03-30T12:17:58.464Z,99.99
2023-03-30T12:18:58.424Z,99.99
2023-03-30T12:19:58.429Z,99.99
2023-03-30T12:20:58.430Z,99.99
2023-03-30T12:22:54.081Z,99.99
2023-03-30T12:24:28.792Z,99.99
2023-03-30T12:25:28.769Z,99.99
2023-03-30T12:26:28.740Z,99.99
2023-03-30T12:27:28.736Z,99.99
2023-03-30T12:28:39.672Z,99.99
2023-03-30T12:30:28.670Z,99.99
2023-03-30T12:31:28.703Z,99.99
2023-03-30T12:32:29.180Z,99.99
2023-03-30T12:33:28.632Z,99.99
2023-03-30T12:34:28.607Z,99.99
2023-03-30T12:35:28.663Z,99.99
2023-03-30T12:36:28.575Z,99.99
2023-03-30T12:37:28.637Z,99.99
2023-03-30T12:38:28.559Z,99.99
2023-03-30T12:39:28.546Z,99.99
2023-03-30T12:40:28.543Z,99.99
2023-03-30T12:41:28.533Z,99.99
2023-03-30T12:42:28.503Z,99.99
2023-03-30T12:43:28.504Z,99.99
2023-03-30T12:44:28.480Z,99.99
2023-03-30T12:45:28.547Z,99.99
2023-03-30T12:46:28.531Z,99.99
2023-03-30T12:47:28.528Z,99.99
2023-03-30T12:48:28.453Z,99.99
2023-03-30T12:49:28.465Z,99.99
2023-03-30T12:50:28.430Z,99.99
2023-03-30T12:51:28.431Z,99.99
2023-03-30T12:52:28.411Z,99.99
2023-03-30T12:53:28.392Z,99.99
2023-03-30T12:54:28.378Z,99.99
2023-03-30T12:55:28.407Z,99.99
2023-03-30T12:56:28.362Z,99.99
2023-03-30T12:57:28.500Z,99.99
2023-03-30T12:58:28.331Z,99.99
2023-03-30T12:59:28.337Z,99.99
2023-03-30T13:00:28.342Z,99.99
2023-03-30T13:01:28.359Z,99.99
2023-03-30T13:02:28.283Z,99.99
2023-03-30T13:03:28.298Z,99.99
2023-03-30T13:04:28.315Z,99.99
2023-03-30T13:05:28.274Z,99.99
2023-03-30T13:06:28.248Z,99.99
2023-03-30T13:07:28.231Z,99.99
2023-03-30T13:08:28.210Z,99.99
2023-03-30T13:09:28.211Z,99.99
2023-03-30T13:10:28.216Z,99.99
2023-03-30T13:11:28.200Z,99.99
2023-03-30T13:12:28.192Z,99.99
2023-03-30T13:13:28.185Z,99.99
2023-03-30T13:14:28.177Z,99.99
2023-03-30T13:15:28.147Z,99.99
2023-03-30T13:16:28.172Z,99.99
2023-03-30T13:17:28.177Z,99.99
2023-03-30T13:18:28.131Z,99.99
2023-03-30T13:19:28.139Z,99.99
2023-03-30T13:20:30.430Z,99.99
2023-03-30T13:21:28.105Z,99.99
2023-03-30T13:22:28.095Z,99.99
2023-03-30T13:23:28.082Z,99.99
2023-03-30T13:24:28.037Z,99.99
2023-03-30T13:25:28.045Z,99.99
2023-03-30T13:26:34.458Z,99.99
2023-03-30T13:27:28.039Z,99.99
2023-03-30T13:28:27.985Z,99.99
2023-03-30T13:29:27.993Z,99.99
2023-03-30T13:30:28.013Z,99.99
2023-03-30T13:31:27.985Z,99.99
2023-03-30T13:32:28.029Z,99.99
2023-03-30T13:33:27.964Z,99.99
2023-03-30T13:34:27.936Z,99.99
2023-03-30T13:35:28.004Z,99.99
2023-03-30T13:36:27.917Z,99.99
2023-03-30T13:37:27.916Z,99.99
2023-03-30T13:38:27.908Z,99.99
2023-03-30T13:39:27.869Z,99.99
2023-03-30T13:40:38.676Z,99.99
2023-03-30T13:41:27.867Z,99.99
2023-03-30T14:21:03.312Z,74.02
2023-03-30T14:22:02.995Z,81.26
2023-03-30T14:23:03.022Z,83.83
2023-03-30T14:24:02.994Z,99.99
2023-03-30T14:25:52.732Z,99.99
2023-03-30T14:26:54.732Z,99.99
2023-03-30T14:27:52.693Z,99.99
2023-03-30T14:28:52.676Z,99.99
2023-03-30T14:29:52.726Z,99.99
2023-03-30T14:30:52.649Z,99.99
2023-03-30T14:32:06.588Z,99.99
2023-03-30T14:32:52.642Z,99.99
2023-03-30T14:33:52.624Z,99.99
2023-03-30T14:34:52.600Z,99.99
2023-03-30T14:35:52.666Z,99.99
2023-03-30T14:36:52.572Z,99.99
2023-03-30T14:37:53.615Z,99.99
2023-03-30T14:38:52.562Z,99.99
2023-03-30T14:39:52.576Z,99.99
2023-03-30T14:40:52.565Z,99.99
2023-03-30T14:41:52.488Z,99.99
2023-03-30T14:42:52.496Z,99.99
2023-03-30T14:43:52.461Z,99.99
2023-03-30T14:44:52.446Z,99.99
2023-03-30T14:45:52.528Z,99.99
2023-03-30T14:46:52.421Z,99.99
2023-03-30T14:47:52.461Z,99.99
2023-03-30T14:48:52.404Z,99.99
2023-03-30T14:49:52.420Z,99.99
2023-03-30T14:50:59.434Z,99.99
2023-03-30T14:51:59.950Z,99.99
2023-03-30T14:52:52.355Z,99.99
2023-03-30T14:53:52.383Z,99.99
2023-03-30T14:55:04.842Z,99.99
2023-03-30T14:55:52.364Z,99.99
2023-03-30T14:56:52.355Z,99.99
2023-03-30T14:59:01.676Z,99.99
2023-03-30T15:12:40.830Z,99.99
2023-03-30T15:13:40.788Z,99.99
2023-03-30T15:40:48.379Z,99.99
2023-03-30T15:41:48.362Z,99.99
2023-03-30T15:42:48.337Z,99.99
